Nashville, TN (37227)

3:58 PM CDT on August 27, 2015 (GMT -0500)
Woodland Pointe | | Change Station
CLOSE
Current Station
Personal Weather Station
Location: Nashville, TN
Elevation: 580 ft
Nearby Weather Stations

Elev 580 ft 36.12 °N, 86.62 °W | Updated 3 minutes ago

Partly Cloudy
Partly Cloudy
82.0 °F
Feels Like 81 °F
N
3.0
Wind Variable Wind from ENE
Gusts 10.0 mph

Today
High -- | Low -- °F
--% Chance of Precip.
Yesterday
High -- | Low -- °F
Precip. -- in
6:14 AM 7:21 PM
Waxing Gibbous, 95% visible
Pressure 30.06 in
Visibility 10.0 miles
Clouds Few 5500 ft
Heat Index 81 °F
Dew Point 54 °F
Humidity 39%
Rainfall Not available.
Snow Depth Not available.
UV 5 out of 12
Pollen 9.30 out of 12
Air Quality Not available.
Flu Activity Not available.
METAR KBNA 272053Z 03007KT 10SM FEW055 28/11 A3008 RMK AO2 SLP179 T02830111 56007
Pressure 30.06 in
Visibility 10.0 miles
Clouds Few 5500 ft
Heat Index 81 °F
Dew Point 54 °F
Humidity 39%
Rainfall Not available.
Snow Depth Not available.
UV 5 out of 12
Pollen 9.30 out of 12
Air Quality Not available.
Flu Activity Not available.
METAR KBNA 272053Z 03007KT 10SM FEW055 28/11 A3008 RMK AO2 SLP179 T02830111 56007

10-Day Weather Forecast

×

Almanac

Astronomy

Aug. 27, 2015 Rise Set
Actual Time
Civil Twilight
Nautical Twilight
Astronomical Twilight
Moon
Length of Visible Light
Length of Day
Tomorrow will be .
, % of the Moon is Illuminated

Today's Extremes

State Highs State Lows

Community

WunderPhotos

Upload Photos

1,850,212 photos uploaded!

WunderBlogs® & News

Nearby

Air Quality

  Air Quality AQ Index Pollutant
Not available.

Snow Depth

Station Depth Elevation

Earthquake Activity

City Distance Mag. Time & Date
Minimum magnitude displayed is 2.5.

Coastal Water Temperatures

Place Temperature

Stations

Nearby Weather Stations

Station Location Temp. Windchill Dew Point Humidity Wind Precip. Elev Updated Type